WBKT

Details ICAO WBKT (KUD)
Name Kudat
Region Brunei and Malaysia
Timezone Asia/Kuching (UTC+8.0)
Plans Departing 2
Arriving 1
Stats Elevation 33 ft / 10 m (AMSL)
Location 6.924012° 116.837051°
Runways 1
Magnetic Variation 0.596° W
Sunrise 2017-12-12 22:16:22 UTC / 2017-12-13 06:16:22 Local
Sunset 2017-12-13 09:59:53 UTC / 2017-12-13 17:59:53 Local
Advertisement - Login to hide

Runways

ID Width Length Bearing (true) Bearing (mag) Surface Threshold Offset Overrun Length
22 66 ft / 20 m 2,383 ft / 726 m 220.51° 221.11° Asphalt 0 ft / 0 m 0 ft / 0 m
4 66 ft / 20 m 2,383 ft / 726 m 40.51° 41.11° Asphalt 0 ft / 0 m 0 ft / 0 m

Map

Weather


0- 5 10 15 20 25 30 35+ Temperature / ° C

Clouds and Precipitation
Forecast for 2017-12-12 18:00 UTC. Updated an hour ago

Ground ~20,000 ft ~40,000 ft Winds

METAR

WBKT 121600Z 26004KT 230V300 9999 FEW013 SCT140 BKN270 26/25 Q1009

TAF

Not found
Warning: Do not use this data for real-world aviation or navigation. No guarantee of current accuracy is given.